createdAt,value
2023-03-06T00:01:05.057Z,41.86
2023-03-06T00:03:33.954Z,41.64
2023-03-06T00:06:02.786Z,41.63
2023-03-06T00:08:31.242Z,41.98
2023-03-06T00:10:59.827Z,41.70
2023-03-06T00:13:30.718Z,41.50
2023-03-06T00:16:01.157Z,41.64
2023-03-06T00:18:29.511Z,41.69
2023-03-06T00:20:58.193Z,41.46
2023-03-06T00:23:27.941Z,41.86
2023-03-06T00:25:56.521Z,41.50
2023-03-06T00:28:24.841Z,41.67
2023-03-06T00:30:53.481Z,41.62
2023-03-06T00:33:21.788Z,41.76
2023-03-06T00:35:50.453Z,41.62
2023-03-06T00:38:18.872Z,41.57
2023-03-06T00:40:47.638Z,41.61
2023-03-06T00:43:15.980Z,41.58
2023-03-06T00:45:44.795Z,41.55
2023-03-06T00:48:13.231Z,41.71
2023-03-06T00:50:41.956Z,41.78
2023-03-06T00:53:13.397Z,41.62
2023-03-06T00:55:45.788Z,41.56
2023-03-06T00:58:14.218Z,41.54
2023-03-06T01:00:43.944Z,41.68
2023-03-06T01:03:12.254Z,41.60
2023-03-06T01:05:41.088Z,41.48
2023-03-06T01:08:09.344Z,41.77
2023-03-06T01:10:41.204Z,41.73
2023-03-06T01:13:10.956Z,41.62
2023-03-06T01:15:39.501Z,41.70
2023-03-06T01:18:07.751Z,41.66
2023-03-06T01:20:38.500Z,41.59
2023-03-06T01:23:06.833Z,41.56
2023-03-06T01:25:35.545Z,41.58
2023-03-06T01:28:04.067Z,41.73
2023-03-06T01:30:32.804Z,41.64
2023-03-06T01:33:02.871Z,41.53
2023-03-06T01:35:31.492Z,41.57
2023-03-06T01:37:59.752Z,41.57
2023-03-06T01:40:28.388Z,41.54
2023-03-06T01:42:56.674Z,41.89
2023-03-06T01:45:25.253Z,41.61
2023-03-06T01:47:53.551Z,41.85
2023-03-06T01:50:22.418Z,41.60
2023-03-06T01:52:57.815Z,41.64
2023-03-06T01:55:33.453Z,41.66
2023-03-06T01:58:05.649Z,41.46
2023-03-06T02:00:34.536Z,41.58
2023-03-06T02:03:09.469Z,41.75
2023-03-06T02:05:40.926Z,41.44
2023-03-06T02:08:15.793Z,41.29
2023-03-06T02:11:13.901Z,41.42
2023-03-06T02:13:42.420Z,41.51
2023-03-06T02:16:12.005Z,41.52
2023-03-06T02:18:41.044Z,41.46
2023-03-06T02:21:12.648Z,41.44
2023-03-06T02:23:57.791Z,41.20
2023-03-06T02:26:27.277Z,41.25
2023-03-06T02:28:58.707Z,41.59
2023-03-06T02:31:31.482Z,41.37
2023-03-06T02:34:15.491Z,41.33
2023-03-06T02:36:50.749Z,41.11
2023-03-06T02:39:20.821Z,41.41
2023-03-06T02:41:49.794Z,41.26
2023-03-06T02:44:22.312Z,41.49
2023-03-06T02:46:51.037Z,41.39
2023-03-06T02:49:19.397Z,41.35
2023-03-06T02:51:48.478Z,41.25
2023-03-06T02:54:18.568Z,41.36
2023-03-06T02:56:47.627Z,41.42
2023-03-06T02:59:15.983Z,41.18
2023-03-06T03:01:44.656Z,41.35
2023-03-06T03:04:13.198Z,41.32
2023-03-06T03:06:42.980Z,41.44
2023-03-06T03:09:12.625Z,41.29
2023-03-06T03:11:41.252Z,41.19
2023-03-06T03:14:10.005Z,41.36
2023-03-06T03:16:39.288Z,41.41
2023-03-06T03:19:07.722Z,41.13
2023-03-06T03:21:36.559Z,41.39
2023-03-06T03:24:05.067Z,41.31
2023-03-06T03:26:33.695Z,41.22
2023-03-06T03:29:10.920Z,41.42
2023-03-06T03:31:39.687Z,41.37
2023-03-06T03:34:08.929Z,41.25
2023-03-06T03:36:40.691Z,41.28
2023-03-06T03:39:10.780Z,41.32
2023-03-06T03:41:39.887Z,41.37
2023-03-06T03:44:10.880Z,41.45
2023-03-06T03:46:39.788Z,41.38
2023-03-06T03:49:13.227Z,41.30
2023-03-06T03:51:42.033Z,41.37
2023-03-06T03:54:11.078Z,41.32
2023-03-06T03:56:44.748Z,41.31
2023-03-06T03:59:22.123Z,41.26
2023-03-06T04:02:04.976Z,41.31
2023-03-06T04:04:38.627Z,41.37
2023-03-06T04:07:08.274Z,41.18
2023-03-06T04:09:38.086Z,41.29
2023-03-06T04:12:07.986Z,41.24
2023-03-06T04:14:38.064Z,41.43
2023-03-06T04:17:07.684Z,41.29
2023-03-06T04:19:36.623Z,41.25
2023-03-06T04:22:05.244Z,41.29
2023-03-06T04:24:36.583Z,41.29
2023-03-06T04:27:05.633Z,41.14
2023-03-06T04:29:33.965Z,41.38
2023-03-06T04:32:03.261Z,41.01
2023-03-06T04:34:31.659Z,41.29
2023-03-06T04:37:00.225Z,41.34
2023-03-06T04:39:28.647Z,41.29
2023-03-06T04:41:57.507Z,41.12
2023-03-06T04:44:25.957Z,41.29
2023-03-06T04:46:54.561Z,41.22
2023-03-06T04:49:22.868Z,41.35
2023-03-06T04:51:51.489Z,41.13
2023-03-06T04:54:19.787Z,41.24
2023-03-06T04:56:48.433Z,41.24
2023-03-06T04:59:16.792Z,41.37
2023-03-06T05:01:45.655Z,41.26
2023-03-06T05:04:14.247Z,41.34
2023-03-06T05:06:43.573Z,41.20
2023-03-06T05:09:12.117Z,41.48
2023-03-06T05:11:40.961Z,41.53
2023-03-06T05:14:09.485Z,41.36
2023-03-06T05:16:38.522Z,41.55
2023-03-06T05:19:07.076Z,41.38
2023-03-06T05:21:35.948Z,41.24
2023-03-06T05:24:04.810Z,41.04
2023-03-06T05:26:34.770Z,41.13
2023-03-06T05:29:03.294Z,40.61
2023-03-06T05:31:32.180Z,40.38
2023-03-06T05:34:00.927Z,40.35
2023-03-06T05:36:29.757Z,40.39
2023-03-06T05:38:58.280Z,40.26
2023-03-06T05:41:27.417Z,39.81
2023-03-06T05:43:57.159Z,39.52
2023-03-06T05:46:26.101Z,39.63
2023-03-06T05:48:58.125Z,39.31
2023-03-06T05:51:27.205Z,39.21
2023-03-06T05:53:55.816Z,39.25
2023-03-06T05:56:24.760Z,38.98
2023-03-06T05:58:53.320Z,39.12
2023-03-06T06:01:22.286Z,38.65
2023-03-06T06:03:50.998Z,38.45
2023-03-06T06:06:19.899Z,38.50
2023-03-06T06:08:48.435Z,38.59
2023-03-06T06:11:19.246Z,38.40
2023-03-06T06:13:49.028Z,38.37
2023-03-06T06:16:19.424Z,38.54
2023-03-06T06:18:47.950Z,38.85
2023-03-06T06:21:16.890Z,38.60
2023-03-06T06:23:45.475Z,38.76
2023-03-06T06:26:15.214Z,39.00
2023-03-06T06:28:44.264Z,38.78
2023-03-06T06:31:13.551Z,38.77
2023-03-06T06:33:42.148Z,39.03
2023-03-06T06:36:19.064Z,38.91
2023-03-06T06:38:47.794Z,39.10
2023-03-06T06:41:39.292Z,39.20
2023-03-06T06:44:11.532Z,39.08
2023-03-06T06:47:20.682Z,39.30
2023-03-06T06:49:28.972Z,39.35
2023-03-06T06:51:58.248Z,39.48
2023-03-06T06:54:26.940Z,39.55
2023-03-06T06:56:55.780Z,39.56
2023-03-06T06:59:24.361Z,39.63
2023-03-06T07:01:53.473Z,39.64
2023-03-06T07:04:22.070Z,39.68
2023-03-06T07:06:50.814Z,39.78
2023-03-06T07:09:20.275Z,39.71
2023-03-06T07:11:49.190Z,39.71
2023-03-06T07:14:17.857Z,39.77
2023-03-06T07:16:46.707Z,39.77
2023-03-06T07:19:15.370Z,39.87
2023-03-06T07:21:44.154Z,39.87
2023-03-06T07:24:12.599Z,40.03
2023-03-06T07:26:41.435Z,40.04
2023-03-06T07:29:09.905Z,40.08
2023-03-06T07:31:38.771Z,40.12
2023-03-06T07:34:07.459Z,39.98
2023-03-06T07:36:36.457Z,40.01
2023-03-06T07:39:04.931Z,40.12
2023-03-06T07:41:33.980Z,40.33
2023-03-06T07:44:02.588Z,40.26
2023-03-06T07:46:31.517Z,40.41
2023-03-06T07:49:00.199Z,40.36
2023-03-06T07:51:28.994Z,40.38
2023-03-06T07:53:57.466Z,40.48
2023-03-06T07:56:26.321Z,40.44
2023-03-06T07:58:56.097Z,40.51
2023-03-06T08:01:26.000Z,40.54
2023-03-06T08:03:54.690Z,40.57
2023-03-06T08:06:27.902Z,40.55
2023-03-06T08:08:57.052Z,40.52
2023-03-06T08:11:28.067Z,40.91
2023-03-06T08:13:57.679Z,40.61
2023-03-06T08:16:29.266Z,40.96
2023-03-06T08:18:57.958Z,40.59
2023-03-06T08:21:28.190Z,40.87
2023-03-06T08:23:56.713Z,41.02
2023-03-06T08:26:31.266Z,40.90
2023-03-06T08:29:00.943Z,40.96
2023-03-06T08:31:38.094Z,41.04
2023-03-06T08:34:14.547Z,41.11
2023-03-06T08:36:43.603Z,41.08
2023-03-06T08:39:12.296Z,41.20
2023-03-06T08:41:42.401Z,41.23
2023-03-06T08:44:11.045Z,41.18
2023-03-06T08:46:39.990Z,41.14
2023-03-06T08:49:09.518Z,41.24
2023-03-06T08:51:38.583Z,41.13
2023-03-06T08:54:07.593Z,41.11
2023-03-06T08:56:36.426Z,41.27
2023-03-06T08:59:06.100Z,41.35
2023-03-06T09:01:53.736Z,41.19
2023-03-06T09:04:22.101Z,41.41
2023-03-06T09:06:51.066Z,41.18
2023-03-06T09:09:19.464Z,41.25
2023-03-06T09:11:48.191Z,41.25
2023-03-06T09:14:16.531Z,41.47
2023-03-06T09:16:45.246Z,41.42
2023-03-06T09:19:13.663Z,41.54
2023-03-06T09:21:42.607Z,41.30
2023-03-06T09:24:11.003Z,41.27
2023-03-06T09:26:45.959Z,41.45
2023-03-06T09:29:16.522Z,41.61
2023-03-06T09:31:45.920Z,41.59
2023-03-06T09:34:14.505Z,41.56
2023-03-06T09:36:55.850Z,41.45
2023-03-06T09:39:26.467Z,41.57
2023-03-06T09:41:55.704Z,41.55
2023-03-06T09:44:35.075Z,41.35
2023-03-06T09:47:37.812Z,41.39
2023-03-06T09:50:37.513Z,41.28
2023-03-06T09:53:30.664Z,41.21
2023-03-06T09:56:13.838Z,41.34
2023-03-06T09:59:13.729Z,41.49
2023-03-06T10:01:42.778Z,41.31
2023-03-06T10:04:42.303Z,41.45
2023-03-06T10:07:25.983Z,41.39
2023-03-06T10:09:59.207Z,41.50
2023-03-06T10:12:39.438Z,41.33
2023-03-06T10:15:29.292Z,41.30
2023-03-06T10:17:57.707Z,41.21
2023-03-06T10:20:35.418Z,41.27
2023-03-06T10:23:34.867Z,41.26
2023-03-06T10:26:13.058Z,41.52
2023-03-06T10:29:29.870Z,41.43
2023-03-06T10:32:48.819Z,41.40
2023-03-06T10:35:24.305Z,41.59
2023-03-06T10:38:12.599Z,41.55
2023-03-06T10:41:03.842Z,41.29
2023-03-06T10:43:35.210Z,41.74
2023-03-06T10:46:05.533Z,41.78
2023-03-06T10:48:36.540Z,41.38
2023-03-06T10:51:23.273Z,41.53
2023-03-06T10:53:59.644Z,41.60
2023-03-06T10:56:33.656Z,41.70
2023-03-06T10:59:25.689Z,41.71
2023-03-06T11:01:59.003Z,41.59
2023-03-06T11:04:35.722Z,41.53
2023-03-06T11:07:15.893Z,41.59
2023-03-06T11:09:57.254Z,41.48
2023-03-06T11:12:41.083Z,41.78
2023-03-06T11:15:15.219Z,41.70
2023-03-06T11:18:00.018Z,41.70
2023-03-06T11:20:51.479Z,41.72
2023-03-06T11:23:32.751Z,41.64
2023-03-06T11:26:24.725Z,41.59
2023-03-06T11:29:24.773Z,41.62
2023-03-06T11:31:57.448Z,41.39
2023-03-06T11:34:51.649Z,41.37
2023-03-06T11:38:07.257Z,41.37
2023-03-06T11:40:47.235Z,41.24
2023-03-06T11:43:30.799Z,41.20
2023-03-06T11:46:31.558Z,41.10
2023-03-06T11:49:31.305Z,41.49
2023-03-06T11:52:05.512Z,41.94
2023-03-06T11:54:34.542Z,42.34
2023-03-06T11:57:06.412Z,43.19
2023-03-06T11:59:56.726Z,43.67
2023-03-06T12:02:46.385Z,44.36
2023-03-06T12:05:41.913Z,44.84
2023-03-06T12:08:34.705Z,45.39
2023-03-06T12:11:23.524Z,45.72
2023-03-06T12:14:15.860Z,45.96
2023-03-06T12:17:08.629Z,45.92
2023-03-06T12:20:24.474Z,45.62
2023-03-06T12:23:34.305Z,42.66
2023-03-06T12:26:46.684Z,42.00
2023-03-06T12:29:28.634Z,41.99
2023-03-06T12:32:23.099Z,41.83
2023-03-06T12:35:08.966Z,41.77
2023-03-06T12:37:53.763Z,41.64
2023-03-06T12:41:08.316Z,41.33
2023-03-06T12:44:16.366Z,42.15
2023-03-06T12:46:50.049Z,42.20
2023-03-06T12:49:32.661Z,42.96
2023-03-06T12:52:02.270Z,42.61
2023-03-06T12:54:33.600Z,42.57
2023-03-06T12:57:02.490Z,42.79
2023-03-06T12:59:49.863Z,42.79
2023-03-06T13:02:33.548Z,42.75
2023-03-06T13:05:11.089Z,42.72
2023-03-06T13:07:56.152Z,42.98
2023-03-06T13:10:35.617Z,42.82
2023-03-06T13:13:14.308Z,42.71
2023-03-06T13:15:47.417Z,42.67
2023-03-06T13:18:22.355Z,42.72
2023-03-06T13:20:56.939Z,42.56
2023-03-06T13:23:38.846Z,42.63
2023-03-06T13:26:12.050Z,42.63
2023-03-06T13:28:54.410Z,42.55
2023-03-06T13:31:36.603Z,42.56
2023-03-06T13:34:48.338Z,42.66
2023-03-06T13:37:25.535Z,42.77
2023-03-06T13:40:00.099Z,42.78
2023-03-06T13:42:33.053Z,42.64
2023-03-06T13:45:16.283Z,42.77
2023-03-06T13:50:50.102Z,42.32
2023-03-06T13:53:31.543Z,42.51
2023-03-06T13:56:22.132Z,42.52
2023-03-06T13:59:28.261Z,42.44
2023-03-06T14:02:30.446Z,42.39
2023-03-06T14:05:00.390Z,42.27
2023-03-06T14:07:34.148Z,42.33
2023-03-06T14:10:24.074Z,42.25
2023-03-06T14:12:59.057Z,42.40
2023-03-06T14:15:51.037Z,42.33
2023-03-06T14:18:38.621Z,42.10
2023-03-06T14:21:13.541Z,42.13
2023-03-06T14:23:43.711Z,41.94
2023-03-06T14:26:19.501Z,41.87
2023-03-06T14:28:57.138Z,41.85
2023-03-06T14:31:38.004Z,41.95
2023-03-06T14:34:29.290Z,41.89
2023-03-06T14:37:08.385Z,41.79
2023-03-06T14:39:40.067Z,41.80
2023-03-06T14:42:26.134Z,42.01
2023-03-06T14:45:05.966Z,41.97
2023-03-06T14:47:36.884Z,42.03
2023-03-06T14:50:28.785Z,42.01
2023-03-06T14:53:05.207Z,42.04
2023-03-06T14:55:35.630Z,42.07
2023-03-06T14:58:11.564Z,42.13
2023-03-06T15:00:44.170Z,41.87
2023-03-06T15:03:26.998Z,41.62
2023-03-06T15:05:55.863Z,41.95
2023-03-06T15:08:30.442Z,41.97
2023-03-06T15:11:04.783Z,41.98
2023-03-06T15:13:34.274Z,41.92
2023-03-06T15:16:13.425Z,41.85
2023-03-06T15:19:03.530Z,41.83
2023-03-06T15:21:38.875Z,41.70
2023-03-06T15:24:35.876Z,41.75
2023-03-06T15:27:07.027Z,41.58
2023-03-06T15:29:38.343Z,41.81
2023-03-06T15:32:34.441Z,41.66
2023-03-06T15:35:34.253Z,41.60
2023-03-06T15:38:04.680Z,41.50
2023-03-06T15:40:33.441Z,41.38
2023-03-06T15:43:02.218Z,41.53
2023-03-06T15:45:32.301Z,41.16
2023-03-06T15:48:03.026Z,41.04
2023-03-06T15:50:31.603Z,41.16
2023-03-06T15:53:00.346Z,41.20
2023-03-06T15:55:29.007Z,41.19
2023-03-06T15:58:00.030Z,41.25
2023-03-06T16:00:41.123Z,41.11
2023-03-06T16:03:10.880Z,41.24
2023-03-06T16:05:39.442Z,41.18
2023-03-06T16:08:09.813Z,41.07
2023-03-06T16:10:39.662Z,40.83
2023-03-06T16:13:14.071Z,40.69
2023-03-06T16:15:50.109Z,40.39
2023-03-06T16:18:19.131Z,40.19
2023-03-06T16:20:47.693Z,40.17
2023-03-06T16:23:16.873Z,39.97
2023-03-06T16:25:47.530Z,39.76
2023-03-06T16:28:17.504Z,39.71
2023-03-06T16:30:46.115Z,39.40
2023-03-06T16:33:15.388Z,39.31
2023-03-06T16:35:46.798Z,39.59
2023-03-06T16:38:16.212Z,39.32
2023-03-06T16:40:44.831Z,39.47
2023-03-06T16:43:15.808Z,39.33
2023-03-06T16:45:44.322Z,39.45
2023-03-06T16:48:17.173Z,39.49
2023-03-06T16:50:45.793Z,39.51
2023-03-06T16:53:15.564Z,39.70
2023-03-06T16:55:44.050Z,39.81
2023-03-06T16:58:13.030Z,39.84
2023-03-06T17:00:41.731Z,39.90
2023-03-06T17:03:10.495Z,39.88
2023-03-06T17:05:38.984Z,39.95
2023-03-06T17:08:07.688Z,39.99
2023-03-06T17:10:36.193Z,40.10
2023-03-06T17:13:07.600Z,40.28
2023-03-06T17:15:36.259Z,40.03
2023-03-06T17:18:05.660Z,40.15
2023-03-06T17:20:34.179Z,40.25
2023-03-06T17:23:03.389Z,40.43
2023-03-06T17:25:31.925Z,40.62
2023-03-06T17:28:00.791Z,40.46
2023-03-06T17:30:29.221Z,40.48
2023-03-06T17:32:58.482Z,40.52
2023-03-06T17:35:26.980Z,40.65
2023-03-06T17:37:59.744Z,40.78
2023-03-06T17:40:28.341Z,40.87
2023-03-06T17:42:57.177Z,40.95
2023-03-06T17:45:25.696Z,41.08
2023-03-06T17:47:55.821Z,41.18
2023-03-06T17:50:24.392Z,41.33
2023-03-06T17:52:53.368Z,41.19
2023-03-06T17:55:21.931Z,41.50
2023-03-06T17:57:52.621Z,41.68
2023-03-06T18:00:23.186Z,41.64
2023-03-06T18:02:51.931Z,41.85
2023-03-06T18:05:22.019Z,41.88
2023-03-06T18:07:51.149Z,41.79
2023-03-06T18:10:19.783Z,41.81
2023-03-06T18:12:48.831Z,41.98
2023-03-06T18:15:17.565Z,42.17
2023-03-06T18:17:46.595Z,42.04
2023-03-06T18:20:15.271Z,42.38
2023-03-06T18:22:44.513Z,42.17
2023-03-06T18:25:12.909Z,42.31
2023-03-06T18:27:41.867Z,42.24
2023-03-06T18:30:11.449Z,42.15
2023-03-06T18:32:40.563Z,42.27
2023-03-06T18:35:09.682Z,42.48
2023-03-06T18:37:38.765Z,42.66
2023-03-06T18:40:08.286Z,42.38
2023-03-06T18:42:37.201Z,42.42
2023-03-06T18:45:06.630Z,42.52
2023-03-06T18:47:35.614Z,42.82
2023-03-06T18:50:04.664Z,43.20
2023-03-06T18:52:35.081Z,43.34
2023-03-06T18:55:04.153Z,43.90
2023-03-06T18:57:32.980Z,44.04
2023-03-06T19:00:01.841Z,44.55
2023-03-06T19:02:30.782Z,44.94
2023-03-06T19:04:59.504Z,45.58
2023-03-06T19:07:29.194Z,45.83
2023-03-06T19:09:57.640Z,45.80
2023-03-06T19:12:26.481Z,46.90
2023-03-06T19:14:54.985Z,46.88
2023-03-06T19:17:25.077Z,47.56
2023-03-06T19:19:55.576Z,47.40
2023-03-06T19:22:24.484Z,47.52
2023-03-06T19:24:53.164Z,47.60
2023-03-06T19:27:22.537Z,47.29
2023-03-06T19:29:50.888Z,47.15
2023-03-06T19:32:19.972Z,46.97
2023-03-06T19:34:51.495Z,47.25
2023-03-06T19:37:20.298Z,46.84
2023-03-06T19:39:48.694Z,46.83
2023-03-06T19:42:17.842Z,46.76
2023-03-06T19:44:46.370Z,47.14
2023-03-06T19:47:15.105Z,46.93
2023-03-06T19:49:43.485Z,46.84
2023-03-06T19:52:12.151Z,46.83
2023-03-06T19:54:40.693Z,46.78
2023-03-06T19:57:09.547Z,46.56
2023-03-06T19:59:37.957Z,46.49
2023-03-06T20:02:07.097Z,46.36
2023-03-06T20:04:35.828Z,46.42
2023-03-06T20:07:07.504Z,46.51
2023-03-06T20:09:36.163Z,46.29
2023-03-06T20:12:07.809Z,45.75
2023-03-06T20:14:38.326Z,46.11
2023-03-06T20:17:08.149Z,45.99
2023-03-06T20:19:37.141Z,46.04
2023-03-06T20:22:05.968Z,45.88
2023-03-06T20:24:34.586Z,45.90
2023-03-06T20:27:04.135Z,46.05
2023-03-06T20:29:32.601Z,45.79
2023-03-06T20:32:01.395Z,45.79
2023-03-06T20:34:29.933Z,45.82
2023-03-06T20:36:58.600Z,45.97
2023-03-06T20:39:27.084Z,46.16
2023-03-06T20:41:56.129Z,45.52
2023-03-06T20:44:24.792Z,45.62
2023-03-06T20:46:53.707Z,45.60
2023-03-06T20:49:22.409Z,45.54
2023-03-06T20:51:51.409Z,45.66
2023-03-06T20:54:19.747Z,45.62
2023-03-06T20:56:48.992Z,45.39
2023-03-06T20:59:17.466Z,45.31
2023-03-06T21:01:48.092Z,45.42
2023-03-06T21:04:16.788Z,45.54
2023-03-06T21:06:47.077Z,45.29
2023-03-06T21:09:16.792Z,45.35
2023-03-06T21:11:45.796Z,45.31
2023-03-06T21:14:14.670Z,45.08
2023-03-06T21:16:43.478Z,45.13
2023-03-06T21:19:11.951Z,44.95
2023-03-06T21:21:40.671Z,44.94
2023-03-06T21:24:09.262Z,45.00
2023-03-06T21:26:38.020Z,44.81
2023-03-06T21:29:06.348Z,44.92
2023-03-06T21:31:35.060Z,45.10
2023-03-06T21:34:05.067Z,44.88
2023-03-06T21:36:34.433Z,44.74
2023-03-06T21:39:06.489Z,44.78
2023-03-06T21:41:35.239Z,44.85
2023-03-06T21:44:05.268Z,44.61
2023-03-06T21:46:34.234Z,44.33
2023-03-06T21:49:04.402Z,44.72
2023-03-06T21:51:33.571Z,44.67
2023-03-06T21:54:03.110Z,44.54
2023-03-06T21:56:33.731Z,44.54
2023-03-06T21:59:02.280Z,44.59
2023-03-06T22:01:31.314Z,44.45
2023-03-06T22:04:00.353Z,44.44
2023-03-06T22:06:30.388Z,44.52
2023-03-06T22:08:59.746Z,44.31
2023-03-06T22:11:31.555Z,44.33
2023-03-06T22:14:00.387Z,44.24
2023-03-06T22:16:29.549Z,44.20
2023-03-06T22:18:58.110Z,44.22
2023-03-06T22:21:26.998Z,44.07
2023-03-06T22:24:00.374Z,44.08
2023-03-06T22:26:29.605Z,44.08
2023-03-06T22:28:58.046Z,44.12
2023-03-06T22:31:28.680Z,43.99
2023-03-06T22:33:59.996Z,43.90
2023-03-06T22:36:30.984Z,44.11
2023-03-06T22:39:01.544Z,44.17
2023-03-06T22:41:30.778Z,43.87
2023-03-06T22:44:00.571Z,43.79
2023-03-06T22:47:26.963Z,44.17
2023-03-06T22:49:55.406Z,44.02
2023-03-06T22:52:24.145Z,43.79
2023-03-06T22:54:52.567Z,43.46
2023-03-06T22:57:21.398Z,43.64
2023-03-06T22:59:49.853Z,43.60
2023-03-06T23:02:18.756Z,43.64
2023-03-06T23:04:52.497Z,43.82
2023-03-06T23:07:21.339Z,43.57
2023-03-06T23:09:50.710Z,43.71
2023-03-06T23:12:38.369Z,43.64
2023-03-06T23:15:25.622Z,43.59
2023-03-06T23:18:13.170Z,43.75
2023-03-06T23:21:00.492Z,43.58
2023-03-06T23:23:49.917Z,44.09
2023-03-06T23:26:20.327Z,43.77
2023-03-06T23:28:49.572Z,43.43
2023-03-06T23:31:30.299Z,43.19
2023-03-06T23:34:03.122Z,43.39
2023-03-06T23:36:31.914Z,43.57
2023-03-06T23:39:01.247Z,43.30
2023-03-06T23:41:30.233Z,43.06
2023-03-06T23:43:59.551Z,43.50
2023-03-06T23:46:28.267Z,43.21
2023-03-06T23:48:57.185Z,43.21
2023-03-06T23:51:25.763Z,43.15
2023-03-06T23:53:57.652Z,43.34
2023-03-06T23:56:27.687Z,42.95
2023-03-06T23:58:56.735Z,43.12
